Time;durP1;ratioP1;P1;durP2;ratioP2;P2;SDS_P1;SDS_P2;PMS_P1;PMS_P2;Temp;Humidity;BMP_temperature;BMP_pressure;BME280_temperature;BME280_humidity;BME280_pressure;Samples;Min_cycle;Max_cycle;Signal;HPM_P1;HPM_P2
2022/07/30 00:00:01;;;;;;;8.15;6.10;;;16.20;99.90;;;;;;5002794;28;20168;-54
2022/07/30 00:02:26;;;;;;;8.55;6.22;;;16.20;99.90;;;;;;5001606;28;20121;-52
2022/07/30 00:04:52;;;;;;;10.20;6.53;;;16.20;99.90;;;;;;5001200;28;20046;-54
2022/07/30 00:07:20;;;;;;;9.48;6.72;;;16.10;99.90;;;;;;4995898;28;20049;-52
2022/07/30 00:09:46;;;;;;;7.32;6.05;;;16.10;99.90;;;;;;4983523;28;20053;-56
2022/07/30 00:12:11;;;;;;;10.52;6.88;;;16.10;99.90;;;;;;4983080;28;20061;-53
2022/07/30 00:14:37;;;;;;;9.68;6.55;;;16.10;99.90;;;;;;4980648;28;20092;-54
2022/07/30 00:17:03;;;;;;;13.48;7.53;;;16.10;99.90;;;;;;4983087;28;20074;-53
2022/07/30 00:19:29;;;;;;;8.82;7.45;;;16.10;99.90;;;;;;4981811;28;20689;-51
2022/07/30 00:21:55;;;;;;;10.07;7.78;;;16.10;99.90;;;;;;4982610;28;20117;-54
2022/07/30 00:24:21;;;;;;;12.80;8.55;;;15.90;99.90;;;;;;4982274;28;20560;-53
2022/07/30 00:26:46;;;;;;;12.27;7.68;;;16.20;99.90;;;;;;4983115;28;20066;-53
2022/07/30 00:29:12;;;;;;;12.27;7.10;;;16.10;99.90;;;;;;4982958;28;20481;-54
2022/07/30 00:31:38;;;;;;;10.13;7.15;;;16.20;99.90;;;;;;4982194;28;20038;-54
2022/07/30 00:34:04;;;;;;;9.27;7.90;;;16.00;99.90;;;;;;4981240;28;20066;-50
2022/07/30 00:36:30;;;;;;;8.60;7.68;;;16.00;99.90;;;;;;4982253;28;20097;-52
2022/07/30 00:38:55;;;;;;;10.13;7.57;;;16.00;99.90;;;;;;4982376;28;20042;-56
2022/07/30 00:41:21;;;;;;;11.93;7.85;;;16.00;99.90;;;;;;4981460;28;20042;-53
2022/07/30 00:43:47;;;;;;;8.90;7.53;;;16.00;99.90;;;;;;4982215;28;20489;-51
2022/07/30 00:46:13;;;;;;;8.63;7.38;;;16.00;99.90;;;;;;4982566;28;20425;-53
2022/07/30 00:48:40;;;;;;;11.23;6.63;;;16.00;99.90;;;;;;4981448;28;20047;-50
2022/07/30 00:51:06;;;;;;;9.23;7.07;;;15.90;99.90;;;;;;4981672;28;20125;-52
2022/07/30 00:53:32;;;;;;;11.27;7.75;;;15.90;99.90;;;;;;4982031;28;20354;-52
2022/07/30 00:55:58;;;;;;;9.98;6.80;;;15.90;99.90;;;;;;4982243;28;20046;-51
2022/07/30 00:58:24;;;;;;;9.93;6.70;;;15.90;99.90;;;;;;4981805;28;20038;-53
2022/07/30 01:00:49;;;;;;;9.50;6.75;;;15.90;99.90;;;;;;4980292;28;20517;-53
2022/07/30 01:03:15;;;;;;;10.68;6.57;;;15.80;99.90;;;;;;4981212;28;20042;-52
2022/07/30 01:05:41;;;;;;;8.45;6.90;;;15.80;99.90;;;;;;4982378;28;20479;-53
2022/07/30 01:08:06;;;;;;;8.27;6.80;;;15.80;99.90;;;;;;4992597;28;20062;-54
2022/07/30 01:10:32;;;;;;;11.07;7.30;;;15.70;99.90;;;;;;4980965;28;20046;-51
2022/07/30 01:12:58;;;;;;;9.07;6.80;;;15.70;99.90;;;;;;4998512;22;20049;-53
2022/07/30 01:15:25;;;;;;;11.38;7.20;;;15.70;99.90;;;;;;4992252;28;20115;-54
2022/07/30 01:17:52;;;;;;;9.68;6.30;;;15.70;99.90;;;;;;5000432;28;20046;-53
2022/07/30 01:20:29;;;;;;;10.15;6.68;;;15.60;99.90;;;;;;5000610;28;20046;-52
2022/07/30 01:23:20;;;;;;;11.00;7.07;;;15.60;99.90;;;;;;5001545;28;20042;-52
2022/07/30 01:26:01;;;;;;;9.32;6.75;;;15.60;99.90;;;;;;5001432;28;20038;-56
2022/07/30 01:28:31;;;;;;;8.85;6.57;;;15.50;99.90;;;;;;4999826;28;20056;-52
2022/07/30 01:30:59;;;;;;;8.95;7.15;;;15.50;99.90;;;;;;5001324;28;20455;-53
2022/07/30 01:33:26;;;;;;;9.68;6.95;;;15.40;99.90;;;;;;5000159;28;20049;-53
2022/07/30 01:35:53;;;;;;;8.98;6.65;;;15.40;99.90;;;;;;5001223;28;20780;-50
2022/07/30 01:38:21;;;;;;;9.57;7.18;;;15.40;99.90;;;;;;4999396;28;20037;-52
2022/07/30 01:40:49;;;;;;;8.48;6.45;;;15.40;99.90;;;;;;5000472;28;20053;-52
2022/07/30 01:43:17;;;;;;;11.23;7.45;;;15.40;99.90;;;;;;5001040;28;20038;-53
2022/07/30 01:45:45;;;;;;;9.13;7.40;;;15.40;99.90;;;;;;5001887;28;20624;-52
2022/07/30 01:48:13;;;;;;;9.23;7.13;;;15.30;99.90;;;;;;4999440;28;20061;-53
2022/07/30 01:50:44;;;;;;;11.20;8.13;;;15.20;99.90;;;;;;5001027;28;20077;-52
2022/07/30 01:53:17;;;;;;;9.82;8.15;;;15.20;99.90;;;;;;5000967;28;20456;-52
2022/07/30 01:55:43;;;;;;;8.93;8.02;;;15.20;99.90;;;;;;5001129;28;20054;-53
2022/07/30 01:58:11;;;;;;;10.38;8.05;;;15.10;99.90;;;;;;5000548;28;20046;-51
2022/07/30 02:00:40;;;;;;;11.05;8.00;;;15.10;99.90;;;;;;5001049;28;20637;-53
2022/07/30 02:03:07;;;;;;;11.02;8.52;;;15.10;99.90;;;;;;4998645;28;20539;-50
2022/07/30 02:05:35;;;;;;;9.48;8.00;;;15.00;99.90;;;;;;4997279;28;20137;-52
2022/07/30 02:08:20;;;;;;;11.20;9.10;;;15.00;99.90;;;;;;4991736;28;20042;-53
2022/07/30 02:11:07;;;;;;;10.35;8.23;;;15.00;99.90;;;;;;4996328;28;20047;-53
2022/07/30 02:13:37;;;;;;;10.32;8.90;;;15.00;99.90;;;;;;4980452;28;20081;-53
2022/07/30 02:16:07;;;;;;;11.00;8.93;;;14.90;99.90;;;;;;4981132;28;20050;-50
2022/07/30 02:18:39;;;;;;;10.73;8.43;;;14.90;99.90;;;;;;4979568;28;20043;-53
2022/07/30 02:21:07;;;;;;;10.20;8.35;;;14.80;99.90;;;;;;4981438;28;20061;-52
2022/07/30 02:23:40;;;;;;;10.18;9.00;;;14.70;99.90;;;;;;4980851;28;20510;-53
2022/07/30 02:26:07;;;;;;;17.02;9.63;;;14.70;99.90;;;;;;4980456;28;20061;-53
2022/07/30 02:28:37;;;;;;;13.20;8.82;;;14.60;99.90;;;;;;4980819;28;20126;-53
2022/07/30 02:31:06;;;;;;;11.20;9.85;;;14.50;99.90;;;;;;4981056;28;20121;-51
2022/07/30 02:33:40;;;;;;;10.90;9.07;;;14.40;99.90;;;;;;4979499;28;20046;-52
2022/07/30 02:36:08;;;;;;;10.20;9.10;;;14.40;99.90;;;;;;4981243;28;20137;-52
2022/07/30 02:38:36;;;;;;;10.55;8.70;;;14.50;99.90;;;;;;4980893;28;20081;-53
2022/07/30 02:41:05;;;;;;;11.88;8.93;;;14.50;99.90;;;;;;4980381;28;20050;-52
2022/07/30 02:43:33;;;;;;;10.73;9.13;;;14.50;99.90;;;;;;4980523;28;20116;-53
2022/07/30 02:46:00;;;;;;;12.90;9.55;;;14.40;99.90;;;;;;4980829;28;20049;-51
2022/07/30 02:48:27;;;;;;;11.27;8.82;;;14.40;99.90;;;;;;4979699;28;20046;-52
2022/07/30 02:50:56;;;;;;;12.80;9.40;;;14.30;99.90;;;;;;4980464;28;20536;-53
2022/07/30 02:53:24;;;;;;;12.93;10.15;;;14.30;99.90;;;;;;4980480;28;20850;-49
2022/07/30 02:55:53;;;;;;;11.07;9.27;;;14.20;99.90;;;;;;4980884;28;20125;-51
2022/07/30 02:58:22;;;;;;;11.35;9.50;;;14.20;99.90;;;;;;4978380;28;20054;-50
2022/07/30 03:00:49;;;;;;;11.70;8.55;;;14.20;99.90;;;;;;4980986;28;20089;-52
2022/07/30 03:03:16;;;;;;;10.25;8.20;;;14.10;99.90;;;;;;4980415;28;20038;-52
2022/07/30 03:05:43;;;;;;;12.60;8.60;;;14.20;99.90;;;;;;4981486;28;20047;-54
2022/07/30 03:08:09;;;;;;;14.70;9.05;;;14.30;99.90;;;;;;4995019;28;20088;-53
2022/07/30 03:10:36;;;;;;;10.98;8.50;;;14.30;99.90;;;;;;4980588;28;20389;-52
2022/07/30 03:13:04;;;;;;;11.02;8.85;;;14.20;99.90;;;;;;4980513;28;20639;-52
2022/07/30 03:15:34;;;;;;;10.43;9.25;;;14.20;99.90;;;;;;4982070;28;20058;-52
2022/07/30 03:18:01;;;;;;;11.65;8.70;;;14.10;99.90;;;;;;4982082;28;20054;-51
2022/07/30 03:20:30;;;;;;;12.35;9.68;;;14.10;99.90;;;;;;4983903;28;20051;-53
2022/07/30 03:22:58;;;;;;;10.85;9.70;;;14.00;99.90;;;;;;4983809;28;20042;-54
2022/07/30 03:25:26;;;;;;;14.45;10.48;;;14.00;99.90;;;;;;4982812;28;20121;-52
2022/07/30 03:27:54;;;;;;;12.43;9.63;;;13.90;99.90;;;;;;4984230;28;20094;-52
2022/07/30 03:30:21;;;;;;;12.02;9.35;;;13.90;99.90;;;;;;4983524;28;20213;-50
2022/07/30 03:32:47;;;;;;;11.75;9.68;;;13.90;99.90;;;;;;4983061;28;20054;-49
2022/07/30 03:35:14;;;;;;;13.13;10.23;;;13.90;99.90;;;;;;4984003;28;20050;-53
2022/07/30 03:37:41;;;;;;;13.50;10.38;;;13.80;99.90;;;;;;4983581;28;20090;-51
2022/07/30 03:40:08;;;;;;;11.07;9.90;;;13.70;99.90;;;;;;4983662;28;20050;-55
2022/07/30 03:42:35;;;;;;;12.60;10.23;;;13.70;99.90;;;;;;4991243;28;20053;-52
2022/07/30 03:45:03;;;;;;;11.27;10.02;;;13.60;99.90;;;;;;5003146;28;20083;-52
2022/07/30 03:47:31;;;;;;;12.13;10.93;;;13.70;99.90;;;;;;4984619;28;20050;-53
2022/07/30 03:49:58;;;;;;;12.55;11.25;;;13.60;99.90;;;;;;5002847;28;20053;-51
2022/07/30 03:52:24;;;;;;;15.65;12.98;;;13.50;99.90;;;;;;5002146;28;20046;-53
2022/07/30 03:54:50;;;;;;;15.02;13.52;;;13.50;99.90;;;;;;5003108;28;20115;-52
2022/07/30 03:57:16;;;;;;;17.52;13.32;;;13.40;99.90;;;;;;5001145;28;20119;-52
2022/07/30 03:59:42;;;;;;;16.00;14.20;;;13.50;99.90;;;;;;5003170;28;20473;-52
2022/07/30 04:02:08;;;;;;;25.10;16.35;;;13.60;99.90;;;;;;5002037;28;20488;-53
2022/07/30 04:04:34;;;;;;;17.00;15.25;;;13.70;99.90;;;;;;5002670;28;20082;-52
2022/07/30 04:07:00;;;;;;;19.23;17.23;;;13.70;99.90;;;;;;4996257;28;20737;-52
2022/07/30 04:09:25;;;;;;;18.98;16.42;;;13.60;99.90;;;;;;4986810;28;20134;-53
2022/07/30 04:11:51;;;;;;;18.85;17.00;;;13.60;99.90;;;;;;4981866;28;20061;-52
2022/07/30 04:14:17;;;;;;;18.98;17.08;;;13.60;99.90;;;;;;4983036;28;20054;-53
2022/07/30 04:16:48;;;;;;;19.00;17.05;;;13.60;99.90;;;;;;4982928;28;20545;-52
2022/07/30 04:19:38;;;;;;;19.83;17.80;;;13.60;99.90;;;;;;4983010;28;20049;-52
2022/07/30 04:22:07;;;;;;;22.00;17.88;;;13.60;99.90;;;;;;4980061;28;20421;-52
2022/07/30 04:24:34;;;;;;;21.67;19.48;;;13.50;99.90;;;;;;4982247;28;20038;-53
2022/07/30 04:27:01;;;;;;;22.80;20.42;;;13.50;99.90;;;;;;4982472;28;20061;-49
2022/07/30 04:29:27;;;;;;;22.30;20.05;;;13.60;99.90;;;;;;4982415;28;20105;-49
2022/07/30 04:31:53;;;;;;;21.98;19.15;;;13.60;99.90;;;;;;4981758;28;20054;-52
2022/07/30 04:34:19;;;;;;;22.83;20.48;;;13.70;99.90;;;;;;4981876;28;20054;-52
2022/07/30 04:36:45;;;;;;;24.48;21.05;;;13.70;99.90;;;;;;4981908;28;20057;-51
2022/07/30 04:39:11;;;;;;;23.27;20.88;;;13.70;99.90;;;;;;4983025;28;20050;-53
2022/07/30 04:41:37;;;;;;;23.30;20.85;;;13.90;99.90;;;;;;4982431;28;20116;-50
2022/07/30 04:44:03;;;;;;;23.60;20.67;;;13.90;99.90;;;;;;4982049;28;20137;-53
2022/07/30 04:46:29;;;;;;;28.92;22.50;;;14.00;99.90;;;;;;4981584;28;20125;-51
2022/07/30 04:48:54;;;;;;;26.55;22.65;;;14.00;99.90;;;;;;4983099;28;20117;-52
2022/07/30 04:51:32;;;;;;;25.13;22.42;;;14.10;99.90;;;;;;4982469;28;20122;-52
2022/07/30 04:53:58;;;;;;;24.25;21.75;;;14.20;99.90;;;;;;4982195;28;20042;-52
2022/07/30 04:56:26;;;;;;;24.35;21.70;;;14.50;99.90;;;;;;4982344;28;20050;-52
2022/07/30 04:58:53;;;;;;;23.40;20.90;;;15.00;99.90;;;;;;4982732;28;20046;-52
2022/07/30 05:01:23;;;;;;;22.33;19.92;;;15.50;99.90;;;;;;4979648;28;20128;-53
2022/07/30 05:03:51;;;;;;;21.42;18.60;;;15.80;99.90;;;;;;4980783;28;20057;-53
2022/07/30 05:06:17;;;;;;;20.48;18.23;;;16.00;99.90;;;;;;4984346;28;20061;-55
2022/07/30 05:08:43;;;;;;;20.27;17.63;;;16.20;99.90;;;;;;4990447;28;20051;-52
2022/07/30 05:11:13;;;;;;;19.60;17.60;;;16.20;99.90;;;;;;4982067;28;20584;-51
2022/07/30 05:13:43;;;;;;;18.63;16.58;;;16.50;99.90;;;;;;4981469;28;20767;-52
2022/07/30 05:16:10;;;;;;;19.33;16.48;;;16.90;99.90;;;;;;4981452;28;20046;-53
2022/07/30 05:18:36;;;;;;;18.33;16.42;;;17.20;99.90;;;;;;4980436;28;20217;-51
2022/07/30 05:21:03;;;;;;;18.70;15.88;;;17.40;99.90;;;;;;4981764;28;20101;-53
2022/07/30 05:23:30;;;;;;;19.40;16.23;;;17.70;99.90;;;;;;4981437;28;20038;-53
2022/07/30 05:25:56;;;;;;;17.88;14.98;;;18.10;99.90;;;;;;4981057;28;20085;-52
2022/07/30 05:28:22;;;;;;;18.50;15.73;;;18.30;99.90;;;;;;4981127;28;20042;-50
2022/07/30 05:30:48;;;;;;;18.20;14.75;;;18.60;99.90;;;;;;4982146;28;20058;-53
2022/07/30 05:33:14;;;;;;;18.40;14.98;;;18.70;99.90;;;;;;4981116;28;20117;-53
2022/07/30 05:35:39;;;;;;;16.05;13.68;;;19.00;99.90;;;;;;4980650;28;20038;-52
2022/07/30 05:38:05;;;;;;;16.77;14.38;;;19.00;99.90;;;;;;4980762;28;20373;-52
2022/07/30 05:40:30;;;;;;;18.80;13.57;;;19.00;99.90;;;;;;4981349;28;20046;-53
2022/07/30 05:42:56;;;;;;;17.45;13.13;;;19.00;99.90;;;;;;4981181;28;20046;-53
2022/07/30 05:45:22;;;;;;;16.58;13.38;;;19.10;99.90;;;;;;4980620;28;20384;-53
2022/07/30 05:47:47;;;;;;;16.35;13.25;;;19.50;99.90;;;;;;4980838;28;20121;-52
2022/07/30 05:50:13;;;;;;;16.27;12.68;;;19.90;99.90;;;;;;4981875;28;20101;-52
2022/07/30 05:52:39;;;;;;;14.95;12.63;;;20.00;99.90;;;;;;4995999;28;20105;-50
2022/07/30 05:55:05;;;;;;;16.27;13.40;;;20.50;99.90;;;;;;4980409;28;20138;-54
2022/07/30 05:57:34;;;;;;;15.00;13.10;;;20.70;99.90;;;;;;4980784;28;20046;-54
2022/07/30 06:00:00;;;;;;;15.05;12.63;;;20.90;99.90;;;;;;4981191;28;20050;-53
2022/07/30 06:02:26;;;;;;;16.17;12.38;;;20.60;99.90;;;;;;4980255;28;20039;-50
2022/07/30 06:04:51;;;;;;;16.73;12.15;;;20.90;99.90;;;;;;4980314;28;20053;-50
2022/07/30 06:07:17;;;;;;;16.92;11.82;;;20.50;99.90;;;;;;4989406;28;20038;-51
2022/07/30 06:09:43;;;;;;;14.32;11.95;;;20.30;99.90;;;;;;4983324;28;20571;-53
2022/07/30 06:12:09;;;;;;;14.93;11.07;;;20.20;99.90;;;;;;4981118;28;20050;-53
2022/07/30 06:14:34;;;;;;;15.85;11.55;;;20.60;99.90;;;;;;4979927;28;20046;-52
2022/07/30 06:17:00;;;;;;;13.73;11.02;;;20.60;99.90;;;;;;4980371;28;20529;-49
2022/07/30 06:19:25;;;;;;;12.90;9.98;;;20.80;99.90;;;;;;4980783;28;20567;-52
2022/07/30 06:21:51;;;;;;;15.18;10.50;;;21.00;99.90;;;;;;4980858;28;20539;-53
2022/07/30 06:24:17;;;;;;;16.48;10.57;;;21.10;99.90;;;;;;4978623;28;20077;-53
2022/07/30 06:26:42;;;;;;;15.40;10.02;;;21.40;99.90;;;;;;4981056;28;20088;-52
2022/07/30 06:29:08;;;;;;;12.63;9.73;;;21.40;99.90;;;;;;4980725;28;20082;-53
2022/07/30 06:31:34;;;;;;;11.93;9.75;;;21.60;99.90;;;;;;4979986;28;20042;-53
2022/07/30 06:33:59;;;;;;;14.80;9.65;;;21.70;99.90;;;;;;4979845;28;20555;-52
2022/07/30 06:36:25;;;;;;;14.73;9.93;;;21.80;99.90;;;;;;4980531;28;20042;-50
2022/07/30 06:38:51;;;;;;;13.65;10.15;;;21.60;99.90;;;;;;4980846;28;20045;-50
2022/07/30 06:41:16;;;;;;;15.93;10.07;;;21.70;99.90;;;;;;4980285;28;20061;-52
2022/07/30 06:43:42;;;;;;;13.73;9.93;;;21.50;99.90;;;;;;4980597;28;20045;-55
2022/07/30 06:46:08;;;;;;;12.55;10.00;;;21.80;99.90;;;;;;4979869;28;20715;-55
2022/07/30 06:48:33;;;;;;;16.05;10.07;;;21.90;99.90;;;;;;4981361;28;20137;-53
2022/07/30 06:50:59;;;;;;;14.05;10.40;;;22.00;99.90;;;;;;4984703;28;20035;-56
2022/07/30 06:53:24;;;;;;;13.05;9.93;;;21.80;99.90;;;;;;4996013;28;20528;-52
2022/07/30 06:55:50;;;;;;;13.68;9.77;;;22.00;99.90;;;;;;5003779;28;20512;-53
2022/07/30 06:58:16;;;;;;;12.18;10.80;;;22.00;99.90;;;;;;5003978;28;20046;-50
2022/07/30 07:00:43;;;;;;;13.48;10.07;;;21.40;99.90;;;;;;5003059;28;20085;-54
2022/07/30 07:03:10;;;;;;;13.40;11.32;;;21.20;99.90;;;;;;5002658;28;20517;-50
2022/07/30 07:05:36;;;;;;;14.65;10.93;;;21.40;99.90;;;;;;5002177;28;20050;-52
2022/07/30 07:08:01;;;;;;;14.40;10.75;;;21.60;99.90;;;;;;4995081;28;20520;-53
2022/07/30 07:10:27;;;;;;;13.68;10.07;;;21.90;99.90;;;;;;4984057;28;20050;-53
2022/07/30 07:12:53;;;;;;;14.23;10.00;;;22.20;99.90;;;;;;4983408;28;20086;-50
2022/07/30 07:15:19;;;;;;;13.02;8.90;;;22.30;99.90;;;;;;4983834;28;20137;-52
2022/07/30 07:17:45;;;;;;;13.40;8.98;;;22.30;99.90;;;;;;4983848;28;20182;-52
2022/07/30 07:20:11;;;;;;;10.60;8.60;;;22.30;99.90;;;;;;4984383;28;20054;-52
2022/07/30 07:22:36;;;;;;;12.00;8.32;;;22.60;99.90;;;;;;4981881;28;20224;-53
2022/07/30 07:25:02;;;;;;;11.32;8.35;;;22.80;99.90;;;;;;5001995;28;20053;-53
2022/07/30 07:27:28;;;;;;;13.27;7.88;;;22.70;99.90;;;;;;5014049;28;20199;-53
2022/07/30 07:29:54;;;;;;;15.05;8.90;;;23.20;99.90;;;;;;5006624;28;20584;-52
2022/07/30 07:32:19;;;;;;;11.68;8.88;;;22.90;99.90;;;;;;5002425;28;20042;-53
2022/07/30 07:34:45;;;;;;;15.82;9.75;;;23.00;99.90;;;;;;5012789;28;20779;-48
2022/07/30 07:37:11;;;;;;;13.52;8.93;;;22.80;99.90;;;;;;5003618;28;20038;-51
2022/07/30 07:39:36;;;;;;;13.77;9.15;;;22.90;99.90;;;;;;5001368;28;20042;-52
2022/07/30 07:42:03;;;;;;;12.05;9.75;;;22.40;99.90;;;;;;5003045;28;20038;-52
2022/07/30 07:44:29;;;;;;;13.95;9.38;;;22.30;99.90;;;;;;5011791;28;20072;-52
2022/07/30 07:46:54;;;;;;;13.88;9.18;;;22.00;99.90;;;;;;5022288;28;20049;-52
2022/07/30 07:49:20;;;;;;;12.73;9.65;;;22.30;99.90;;;;;;5012947;28;20042;-52
2022/07/30 07:51:45;;;;;;;15.35;9.75;;;22.30;99.90;;;;;;5013876;28;20050;-49
2022/07/30 07:54:11;;;;;;;14.10;10.77;;;22.20;99.90;;;;;;5008804;28;20124;-54
2022/07/30 07:56:37;;;;;;;13.13;9.95;;;22.40;99.90;;;;;;5012516;28;20052;-54
2022/07/30 07:59:02;;;;;;;13.57;9.68;;;22.60;99.90;;;;;;5012310;28;20034;-50
2022/07/30 08:01:28;;;;;;;14.82;9.45;;;22.80;99.90;;;;;;5009254;28;20041;-58
2022/07/30 08:03:54;;;;;;;14.80;9.30;;;22.70;99.90;;;;;;5011605;28;20034;-54
2022/07/30 08:06:19;;;;;;;12.65;8.85;;;22.50;99.90;;;;;;5009362;28;20033;-54
2022/07/30 08:08:45;;;;;;;13.25;9.48;;;22.80;99.90;;;;;;4994051;28;20489;-52
2022/07/30 08:11:11;;;;;;;13.52;9.48;;;22.90;99.90;;;;;;4983694;28;20206;-53
2022/07/30 08:13:36;;;;;;;13.73;8.55;;;22.90;99.90;;;;;;4982642;28;20065;-55
2022/07/30 08:16:02;;;;;;;14.75;9.30;;;22.80;99.90;;;;;;4982038;28;20061;-52
2022/07/30 08:18:28;;;;;;;13.52;10.02;;;23.00;99.90;;;;;;4981028;28;20049;-53
2022/07/30 08:20:54;;;;;;;13.88;9.35;;;23.10;99.90;;;;;;4986286;28;20107;-48
2022/07/30 08:23:21;;;;;;;13.73;8.88;;;23.10;99.90;;;;;;5014569;28;20616;-54
2022/07/30 08:25:47;;;;;;;16.50;8.93;;;23.40;99.90;;;;;;5008235;28;20131;-53
2022/07/30 08:28:13;;;;;;;14.18;9.18;;;23.30;99.90;;;;;;5011457;28;20068;-53
2022/07/30 08:30:39;;;;;;;11.55;8.07;;;23.70;99.90;;;;;;5015089;28;20594;-53
2022/07/30 08:33:04;;;;;;;10.25;7.80;;;23.70;99.90;;;;;;5021477;28;20034;-51
2022/07/30 08:35:30;;;;;;;13.13;7.35;;;23.40;99.90;;;;;;5002172;28;20045;-52
2022/07/30 08:37:56;;;;;;;11.43;6.90;;;23.50;99.90;;;;;;5002035;28;20047;-55
2022/07/30 08:40:25;;;;;;;11.93;7.03;;;23.40;99.90;;;;;;5001407;28;20084;-52
2022/07/30 08:42:52;;;;;;;10.25;6.55;;;23.60;99.90;;;;;;5001326;28;20042;-52
2022/07/30 08:45:19;;;;;;;9.63;7.25;;;23.70;99.90;;;;;;5001544;28;20074;-54
2022/07/30 08:47:45;;;;;;;13.63;8.27;;;23.40;99.90;;;;;;5000826;28;20053;-53
2022/07/30 08:50:13;;;;;;;8.50;6.10;;;23.40;99.90;;;;;;5001977;28;20057;-56
2022/07/30 08:52:40;;;;;;;13.23;6.63;;;23.80;99.90;;;;;;5001244;28;20045;-52
2022/07/30 08:55:06;;;;;;;12.07;6.82;;;23.50;99.90;;;;;;5001829;28;20060;-55
2022/07/30 08:57:36;;;;;;;11.90;7.05;;;23.60;99.90;;;;;;5001432;28;20058;-54
2022/07/30 09:00:05;;;;;;;14.98;6.53;;;23.70;99.90;;;;;;4982219;28;20050;-51
2022/07/30 09:02:31;;;;;;;10.18;6.50;;;23.80;99.90;;;;;;4981200;28;20043;-52
2022/07/30 09:04:57;;;;;;;11.13;6.20;;;23.80;99.90;;;;;;5000382;28;20491;-54
2022/07/30 09:07:23;;;;;;;10.48;7.10;;;24.10;99.90;;;;;;4995784;28;20036;-55
2022/07/30 09:09:48;;;;;;;11.82;6.65;;;24.00;99.90;;;;;;4993556;28;20046;-55
2022/07/30 09:12:34;;;;;;;9.55;6.30;;;24.20;99.90;;;;;;5000037;28;20123;-55
2022/07/30 09:15:11;;;;;;;9.95;6.95;;;24.30;99.90;;;;;;4999581;28;20050;-55
2022/07/30 09:17:50;;;;;;;13.95;6.80;;;24.30;99.90;;;;;;4999757;28;20050;-57
2022/07/30 09:20:17;;;;;;;11.98;7.57;;;24.10;99.90;;;;;;5001413;28;20045;-56
2022/07/30 09:22:54;;;;;;;11.98;6.65;;;24.10;99.90;;;;;;5001661;28;20072;-54
2022/07/30 09:25:44;;;;;;;8.55;6.22;;;24.30;99.90;;;;;;5001039;28;20125;-55
2022/07/30 09:28:10;;;;;;;10.27;6.70;;;24.30;99.90;;;;;;4992451;28;20110;-55
2022/07/30 09:30:50;;;;;;;11.98;7.07;;;24.50;99.90;;;;;;5000621;28;20221;-58
2022/07/30 09:33:37;;;;;;;9.88;6.07;;;24.80;99.90;;;;;;4988521;28;20050;-59
2022/07/30 09:36:14;;;;;;;9.65;6.45;;;25.00;99.90;;;;;;4981401;28;20042;-55
2022/07/30 09:38:43;;;;;;;13.00;6.22;;;25.20;99.90;;;;;;4992357;28;20516;-54
2022/07/30 09:41:09;;;;;;;12.55;6.25;;;24.80;99.90;;;;;;5002198;28;20042;-55
2022/07/30 09:43:51;;;;;;;10.68;6.25;;;24.70;99.90;;;;;;4999289;28;20044;-55
2022/07/30 09:46:17;;;;;;;12.45;5.20;;;25.20;99.90;;;;;;4992585;28;20033;-56
2022/07/30 09:48:47;;;;;;;9.52;5.80;;;25.50;99.90;;;;;;5000290;28;20077;-51
2022/07/30 09:51:13;;;;;;;11.65;5.95;;;25.50;99.90;;;;;;4999341;28;20038;-53
2022/07/30 09:53:57;;;;;;;8.15;4.50;;;25.70;99.90;;;;;;4997135;28;20512;-53
2022/07/30 09:56:25;;;;;;;9.70;5.47;;;25.80;99.90;;;;;;4999567;28;20042;-54
2022/07/30 09:58:50;;;;;;;10.70;5.60;;;25.70;99.90;;;;;;4998552;28;20041;-54
2022/07/30 10:01:16;;;;;;;9.38;5.13;;;24.90;99.90;;;;;;4997939;28;20034;-56
2022/07/30 10:03:42;;;;;;;7.82;5.10;;;25.00;99.90;;;;;;4999361;28;20045;-54
2022/07/30 10:06:09;;;;;;;9.85;4.97;;;25.30;99.90;;;;;;4996263;28;20033;-56
2022/07/30 10:08:46;;;;;;;9.73;5.93;;;25.40;99.90;;;;;;4988257;28;20042;-55
2022/07/30 10:11:14;;;;;;;10.68;5.47;;;25.80;99.90;;;;;;5004413;28;20037;-55
2022/07/30 10:13:41;;;;;;;8.25;4.63;;;25.60;99.90;;;;;;5007054;28;20760;-55
2022/07/30 10:16:08;;;;;;;8.63;4.05;;;25.80;99.90;;;;;;5006834;28;20046;-55
2022/07/30 10:18:35;;;;;;;8.15;4.60;;;26.00;99.90;;;;;;5019632;28;20123;-55
2022/07/30 10:21:02;;;;;;;10.23;4.70;;;26.10;99.90;;;;;;5016544;28;20096;-55
2022/07/30 10:23:29;;;;;;;6.50;4.68;;;25.70;99.90;;;;;;5005078;28;20381;-53
2022/07/30 10:25:56;;;;;;;7.47;4.07;;;25.70;99.90;;;;;;5003744;28;20046;-54
2022/07/30 10:28:25;;;;;;;7.85;4.10;;;25.90;99.90;;;;;;4999361;28;20091;-56
2022/07/30 10:30:52;;;;;;;8.15;4.03;;;25.40;99.90;;;;;;4998540;28;20062;-57
2022/07/30 10:33:22;;;;;;;8.85;4.38;;;25.50;99.90;;;;;;4999307;28;20049;-56
2022/07/30 10:35:47;;;;;;;9.80;4.60;;;25.80;99.90;;;;;;4999851;28;20504;-55
2022/07/30 10:38:19;;;;;;;10.80;4.45;;;25.40;99.90;;;;;;4999935;28;20069;-56
2022/07/30 10:40:57;;;;;;;8.40;4.57;;;25.50;99.90;;;;;;4998612;28;20724;-57
2022/07/30 10:44:00;;;;;;;8.20;4.47;;;24.90;99.90;;;;;;4999197;28;20100;-56
2022/07/30 10:46:37;;;;;;;5.93;3.70;;;25.30;99.90;;;;;;4998118;28;20042;-54
2022/07/30 10:49:11;;;;;;;6.97;4.20;;;25.30;99.90;;;;;;4998104;28;20549;-53
2022/07/30 10:51:42;;;;;;;;;;;25.10;99.90;;;;;;4998617;28;20571;-52
2022/07/30 10:54:34;;;;;;;9.02;4.28;;;25.10;99.90;;;;;;4997702;28;19963;-52
2022/07/30 10:57:07;;;;;;;10.55;4.00;;;24.90;99.90;;;;;;4999380;28;20416;-52
2022/07/30 11:00:02;;;;;;;11.57;4.07;;;24.70;99.90;;;;;;4999030;28;20086;-53
2022/07/30 11:02:33;;;;;;;8.77;4.60;;;24.80;99.90;;;;;;4980446;28;20145;-52
2022/07/30 11:05:17;;;;;;;9.85;4.05;;;25.00;99.90;;;;;;4999497;28;20077;-53
2022/07/30 11:07:44;;;;;;;12.18;3.90;;;25.20;99.90;;;;;;4991760;28;20046;-53
2022/07/30 11:10:33;;;;;;;9.05;3.88;;;25.70;99.90;;;;;;4979703;28;20045;-54
2022/07/30 11:12:58;;;;;;;7.38;3.78;;;26.00;99.90;;;;;;4977498;28;20062;-53
2022/07/30 11:15:55;;;;;;;7.50;4.00;;;26.00;99.90;;;;;;4978642;28;20464;-52
2022/07/30 11:18:23;;;;;;;6.53;3.42;;;26.20;99.90;;;;;;4978862;28;20042;-53
2022/07/30 11:21:17;;;;;;;6.88;3.55;;;26.60;99.90;;;;;;4978245;28;20053;-52
2022/07/30 11:23:44;;;;;;;;;;;26.00;99.90;;;;;;4976634;28;20050;-55
2022/07/30 11:26:30;;;;;;;10.10;3.67;;;25.90;99.90;;;;;;4993827;28;19922;-53
2022/07/30 11:28:56;;;;;;;8.10;3.28;;;25.90;99.90;;;;;;4980575;28;20046;-54
2022/07/30 11:31:31;;;;;;;10.75;3.28;;;25.80;99.90;;;;;;4996495;28;20049;-54
2022/07/30 11:34:18;;;;;;;9.18;3.70;;;25.90;99.90;;;;;;4998563;28;20271;-55
2022/07/30 11:37:04;;;;;;;7.13;3.42;;;26.40;99.90;;;;;;5000843;28;20092;-55
2022/07/30 11:39:54;;;;;;;6.75;3.15;;;26.60;99.90;;;;;;5001865;28;20052;-54
2022/07/30 11:42:27;;;;;;;6.80;3.58;;;26.50;99.90;;;;;;5000057;28;20067;-54
2022/07/30 11:45:16;;;;;;;10.43;3.00;;;26.70;99.90;;;;;;5001037;28;20038;-53
2022/07/30 11:47:44;;;;;;;6.45;3.00;;;27.20;99.90;;;;;;5001993;28;20552;-54
2022/07/30 11:50:18;;;;;;;4.75;2.47;;;27.30;99.90;;;;;;5001914;28;20041;-54
2022/07/30 11:52:49;;;;;;;6.22;3.03;;;26.70;99.90;;;;;;5000958;28;20046;-51
2022/07/30 11:55:46;;;;;;;5.57;3.50;;;26.30;99.90;;;;;;5001667;28;20061;-52
2022/07/30 11:58:38;;;;;;;7.72;3.78;;;26.20;99.90;;;;;;4997930;28;20038;-57
2022/07/30 12:01:14;;;;;;;5.78;2.83;;;26.30;99.90;;;;;;4981251;28;20050;-53
2022/07/30 12:03:44;;;;;;;5.90;3.40;;;26.50;99.90;;;;;;4981528;28;20048;-53
2022/07/30 12:06:16;;;;;;;6.93;3.00;;;26.50;99.90;;;;;;4984559;28;20030;-57
2022/07/30 12:08:44;;;;;;;10.25;3.28;;;26.00;99.90;;;;;;4988505;28;20126;-57
2022/07/30 12:11:10;;;;;;;5.63;3.17;;;25.80;99.90;;;;;;4991628;28;20121;-56
2022/07/30 12:13:36;;;;;;;6.10;3.13;;;26.10;99.90;;;;;;5000334;28;20138;-56
2022/07/30 12:16:08;;;;;;;6.10;2.90;;;26.10;99.90;;;;;;5000104;28;20085;-56
2022/07/30 12:18:34;;;;;;;5.95;2.80;;;26.50;99.90;;;;;;4988326;28;20145;-57
2022/07/30 12:21:10;;;;;;;8.88;3.20;;;26.80;99.90;;;;;;5000691;28;20042;-57
2022/07/30 12:23:36;;;;;;;5.88;2.80;;;26.90;99.90;;;;;;4992092;28;20831;-57
2022/07/30 12:26:03;;;;;;;5.10;2.67;;;26.70;99.90;;;;;;5002016;28;20052;-57
2022/07/30 12:28:32;;;;;;;6.60;3.00;;;26.60;99.90;;;;;;5001508;28;20060;-56
2022/07/30 12:31:01;;;;;;;5.35;2.83;;;26.60;99.90;;;;;;5000880;28;20129;-57
2022/07/30 12:33:26;;;;;;;7.55;3.08;;;27.20;99.90;;;;;;5000481;28;20057;-56
2022/07/30 12:35:54;;;;;;;5.22;2.60;;;27.20;99.90;;;;;;5001659;28;20042;-57
2022/07/30 12:38:22;;;;;;;6.78;2.60;;;27.50;99.90;;;;;;5000283;28;20050;-57
2022/07/30 12:40:57;;;;;;;5.65;2.58;;;27.20;99.90;;;;;;5001489;28;20088;-57
2022/07/30 12:43:44;;;;;;;7.57;3.15;;;26.90;99.90;;;;;;5001083;28;20116;-57
2022/07/30 12:46:13;;;;;;;6.22;3.03;;;26.70;99.90;;;;;;5000693;28;20045;-57